Bookmark and Share
Track history (hours):
 

Shinwa-maru

Last reported at 2013-Sep-18 02:32 UTC. Time now 2014-Apr-17 15:33 UTC.
Position N 31°22' E 121°43'.
Warning: this ship's position is months out of date.

Length 327 m; draft 7.4 m.

Type: Cargo ship. MMSI: 370511000.

NotesDate/timePositionNaut miles runAvg speedWind from/ knotsBaromVisibWave heightAir tempDewpointWater temp
2013-Sep-18 02:32N 31°22' E 121°43'0 0.0
2013-Sep-18 01:26N 31°22' E 121°43'0 0.0
2013-Sep-18 00:26N 31°22' E 121°43'0 0.0
2013-Sep-17 23:32N 31°22' E 121°43'0 0.0
2013-Sep-17 22:32N 31°22' E 121°43'0 0.0
2013-Sep-17 21:32N 31°22' E 121°43'0 0.0
2013-Sep-17 20:14N 31°22' E 121°43'0 0.0
2013-Sep-17 19:26N 31°22' E 121°43'0 0.0
2013-Sep-17 18:26N 31°22' E 121°43'0 0.0
2013-Sep-17 17:26N 31°22' E 121°43'0 0.0
2013-Sep-17 16:32N 31°22' E 121°43'0 0.0
2013-Sep-17 15:32N 31°22' E 121°43'0 0.0
2013-Sep-17 14:32N 31°22' E 121°43'0 0.0
2013-Sep-17 13:32N 31°22' E 121°43'0 0.0
2013-Sep-17 12:32N 31°22' E 121°43'0 0.0
2013-Sep-17 11:32N 31°22' E 121°43'0 0.0
2013-Sep-17 10:32N 31°22' E 121°43'0 0.0
2013-Sep-17 09:26N 31°22' E 121°43'0 0.0
2013-Sep-17 08:26N 31°22' E 121°43'0 0.0
2013-Sep-17 07:32N 31°22' E 121°43'0 0.0
2013-Sep-17 06:26N 31°22' E 121°43'0 0.0
2013-Sep-17 05:32N 31°22' E 121°43'0 0.0
2013-Sep-17 04:08N 31°22' E 121°43'0 0.1
2013-Sep-17 03:32N 31°22' E 121°43'1 1.0
2013-Sep-17 02:32N 31°21' E 121°43'8 8.1
2013-Sep-17 01:33N 31°16' E 121°51'10 9.6
2013-Sep-17 00:33N 31°14' E 122°02'1210.8
2013-Sep-16 23:24N 31°08' E 122°15'8 8.8
2013-Sep-16 22:31N 31°06' E 122°23'7 7.0
2013-Sep-16 21:30N 31°06' E 122°32'10 8.0
2013-Sep-16 20:17N 31°09' E 122°43'1 0.1
2013-Sep-16 10:15N 31°09' E 122°44'0 0.1
2013-Sep-16 09:30N 31°09' E 122°44'0 0.1
2013-Sep-16 08:31N 31°09' E 122°44'3 3.3
2013-Sep-16 07:34N 31°09' E 122°47'7 6.7
2013-Sep-16 06:33N 31°13' E 122°54'1413.7
2013-Sep-16 05:34N 31°18' E 123°08'1411.4
2013-Sep-16 04:19N 31°22' E 123°24'1113.7
2013-Sep-16 03:32N 31°26' E 123°36'1313.2
2013-Sep-16 02:33N 31°31' E 123°50'1413.4
2013-Sep-16 01:32N 31°36' E 124°05'1313.5
2013-Sep-16 00:33N 31°41' E 124°19'1413.9
2013-Sep-15 23:32N 31°46' E 124°35'1413.9
2013-Sep-15 22:33N 31°51' E 124°50'1514.6
2013-Sep-15 21:29N 31°56' E 125°07'1414.7
2013-Sep-15 20:32N 32°01' E 125°22'2014.6
2013-Sep-15 19:10N 32°12' E 125°42'25213.5
2013-Sep-15 00:31N 34°01' E 130°13'1313.5
2013-Sep-14 23:32N 34°03' E 130°29'1413.8
2013-Sep-14 22:32N 34°04' E 130°46'  

Dump ship's entire track history

sailing weather and tide predictions

Shinwa-maru — 3ETC4 — position and weather